createdAt,value
2022-10-02T00:02:10.704Z,13.35
2022-10-02T00:04:51.142Z,13.29
2022-10-02T00:07:24.489Z,13.24
2022-10-02T00:09:57.440Z,13.22
2022-10-02T00:12:28.838Z,13.18
2022-10-02T00:15:18.566Z,13.17
2022-10-02T00:17:48.370Z,13.13
2022-10-02T00:20:19.418Z,13.12
2022-10-02T00:23:01.448Z,13.11
2022-10-02T00:25:30.583Z,13.09
2022-10-02T00:28:06.306Z,13.07
2022-10-02T00:31:02.128Z,13.02
2022-10-02T00:34:01.970Z,12.99
2022-10-02T00:36:50.880Z,12.97
2022-10-02T00:39:45.485Z,12.93
2022-10-02T00:42:36.752Z,12.87
2022-10-02T00:45:28.005Z,12.84
2022-10-02T00:48:12.856Z,12.83
2022-10-02T00:51:02.799Z,12.83
2022-10-02T00:53:47.946Z,12.78
2022-10-02T00:56:28.364Z,12.73
2022-10-02T00:59:31.440Z,12.70
2022-10-02T01:02:13.683Z,12.68
2022-10-02T01:04:41.113Z,12.71
2022-10-02T01:07:12.236Z,12.71
2022-10-02T01:09:39.761Z,12.71
2022-10-02T01:12:06.970Z,12.68
2022-10-02T01:14:39.943Z,12.67
2022-10-02T01:17:26.473Z,12.68
2022-10-02T01:19:55.509Z,12.65
2022-10-02T01:22:25.325Z,12.63
2022-10-02T01:24:56.801Z,12.58
2022-10-02T01:27:25.310Z,12.54
2022-10-02T01:29:57.188Z,12.49
2022-10-02T01:32:28.763Z,12.47
2022-10-02T01:34:56.519Z,12.44
2022-10-02T01:37:28.842Z,12.41
2022-10-02T01:40:01.324Z,12.35
2022-10-02T01:42:29.180Z,12.32
2022-10-02T01:44:56.095Z,12.27
2022-10-02T01:47:32.653Z,12.22
2022-10-02T01:50:27.333Z,12.17
2022-10-02T01:53:26.520Z,12.09
2022-10-02T01:56:27.959Z,11.97
2022-10-02T01:59:04.721Z,11.89
2022-10-02T02:01:55.352Z,11.84
2022-10-02T02:04:33.571Z,11.76
2022-10-02T02:07:04.912Z,11.70
2022-10-02T02:09:45.052Z,11.63
2022-10-02T02:12:27.726Z,11.55
2022-10-02T02:15:04.014Z,11.50
2022-10-02T02:17:46.015Z,11.46
2022-10-02T02:20:22.592Z,11.38
2022-10-02T02:22:52.977Z,11.28
2022-10-02T02:25:24.829Z,11.13
2022-10-02T02:27:56.681Z,11.02
2022-10-02T02:30:24.793Z,10.96
2022-10-02T02:33:01.994Z,10.91
2022-10-02T02:35:37.462Z,10.84
2022-10-02T02:38:08.302Z,10.81
2022-10-02T02:40:41.632Z,10.77
2022-10-02T02:43:11.671Z,10.76
2022-10-02T02:45:47.577Z,10.73
2022-10-02T02:48:26.219Z,10.68
2022-10-02T02:50:59.639Z,10.67
2022-10-02T02:53:44.793Z,10.65
2022-10-02T02:56:16.488Z,10.59
2022-10-02T02:58:51.665Z,10.59
2022-10-02T03:01:18.637Z,10.61
2022-10-02T03:03:45.514Z,10.63
2022-10-02T03:06:15.181Z,10.69
2022-10-02T03:08:43.673Z,10.76
2022-10-02T03:11:16.560Z,10.81
2022-10-02T03:14:02.315Z,10.84
2022-10-02T03:16:32.006Z,10.88
2022-10-02T03:19:32.811Z,10.92
2022-10-02T03:22:30.872Z,10.95
2022-10-02T03:25:25.713Z,10.98
2022-10-02T03:28:43.490Z,11.01
2022-10-02T03:31:10.376Z,11.07
2022-10-02T03:33:38.936Z,11.14
2022-10-02T03:36:06.469Z,11.16
2022-10-02T03:38:33.974Z,11.17
2022-10-02T03:41:00.848Z,11.21
2022-10-02T03:43:29.601Z,11.22
2022-10-02T03:45:56.959Z,11.24
2022-10-02T03:48:23.819Z,11.28
2022-10-02T03:50:50.785Z,11.30
2022-10-02T03:53:24.879Z,11.33
2022-10-02T03:56:06.154Z,11.34
2022-10-02T03:58:34.461Z,11.32
2022-10-02T04:01:20.363Z,11.32
2022-10-02T04:03:55.341Z,11.36
2022-10-02T04:06:30.055Z,11.37
2022-10-02T04:09:14.557Z,11.37
2022-10-02T04:11:49.356Z,11.37
2022-10-02T04:14:54.312Z,11.38
2022-10-02T04:17:37.172Z,11.37
2022-10-02T04:20:31.213Z,11.37
2022-10-02T04:23:16.887Z,11.33
2022-10-02T04:25:49.225Z,11.35
2022-10-02T04:28:30.544Z,11.36
2022-10-02T04:30:57.564Z,11.32
2022-10-02T04:33:25.612Z,11.31
2022-10-02T04:36:21.626Z,11.31
2022-10-02T04:39:20.070Z,11.30
2022-10-02T04:41:59.938Z,11.31
2022-10-02T04:44:42.006Z,11.30
2022-10-02T04:47:34.434Z,11.29
2022-10-02T04:50:30.941Z,11.29
2022-10-02T04:53:22.062Z,11.30
2022-10-02T04:55:51.974Z,11.31
2022-10-02T04:58:21.609Z,11.31
2022-10-02T05:01:03.627Z,11.31
2022-10-02T05:04:04.178Z,11.34
2022-10-02T05:06:48.243Z,11.36
2022-10-02T05:09:41.916Z,11.36
2022-10-02T05:12:26.828Z,11.37
2022-10-02T05:15:35.785Z,11.39
2022-10-02T05:18:14.601Z,11.42
2022-10-02T05:20:56.210Z,11.46
2022-10-02T05:24:08.289Z,11.48
2022-10-02T05:26:50.914Z,11.49
2022-10-02T05:29:20.777Z,11.51
2022-10-02T05:32:15.059Z,11.52
2022-10-02T05:34:44.951Z,11.54
2022-10-02T05:37:57.739Z,11.58
2022-10-02T05:40:35.957Z,11.62
2022-10-02T05:43:11.268Z,11.66
2022-10-02T05:45:39.953Z,11.72
2022-10-02T05:48:39.240Z,11.79
2022-10-02T05:51:15.938Z,11.84
2022-10-02T05:53:45.955Z,11.88
2022-10-02T05:56:15.494Z,11.91
2022-10-02T05:58:57.973Z,11.95
2022-10-02T06:01:31.316Z,12.00
2022-10-02T06:04:05.941Z,12.05
2022-10-02T06:06:50.945Z,12.09
2022-10-02T06:09:44.843Z,12.14
2022-10-02T06:12:30.249Z,12.19
2022-10-02T06:15:22.353Z,12.25
2022-10-02T06:18:05.775Z,12.27
2022-10-02T06:20:46.002Z,12.28
2022-10-02T06:23:25.654Z,12.29
2022-10-02T06:25:58.918Z,12.27
2022-10-02T06:28:37.495Z,12.27
2022-10-02T06:31:17.814Z,12.23
2022-10-02T06:33:44.856Z,12.19
2022-10-02T06:36:47.778Z,12.19
2022-10-02T06:39:26.364Z,12.13
2022-10-02T06:42:11.945Z,12.07
2022-10-02T06:44:54.373Z,11.98
2022-10-02T06:47:53.750Z,11.89
2022-10-02T06:50:23.226Z,11.85
2022-10-02T06:52:52.783Z,11.89
2022-10-02T06:55:31.548Z,11.92
2022-10-02T06:58:29.584Z,11.96
2022-10-02T07:01:10.375Z,12.03
2022-10-02T07:03:56.941Z,12.10
2022-10-02T07:06:39.365Z,12.16
2022-10-02T07:09:18.913Z,12.23
2022-10-02T07:12:04.566Z,12.30
2022-10-02T07:15:01.190Z,12.35
2022-10-02T07:17:46.843Z,12.43
2022-10-02T07:20:31.639Z,12.49
2022-10-02T07:23:23.681Z,12.58
2022-10-02T07:26:28.318Z,12.73
2022-10-02T07:29:21.961Z,12.98
2022-10-02T07:32:12.286Z,13.19
2022-10-02T07:35:16.791Z,13.47
2022-10-02T07:37:55.686Z,13.71
2022-10-02T07:40:38.247Z,13.86
2022-10-02T07:43:39.163Z,13.96
2022-10-02T07:46:40.529Z,14.09
2022-10-02T07:49:29.575Z,14.22
2022-10-02T07:52:11.323Z,14.29
2022-10-02T07:54:45.552Z,14.37
2022-10-02T07:57:30.289Z,14.42
2022-10-02T08:00:03.244Z,14.44
2022-10-02T08:02:58.892Z,14.41
2022-10-02T08:05:36.220Z,14.35
2022-10-02T08:08:14.952Z,14.30
2022-10-02T08:10:47.914Z,14.24
2022-10-02T08:13:31.137Z,14.24
2022-10-02T08:15:58.615Z,14.25
2022-10-02T08:18:36.661Z,14.23
2022-10-02T08:21:15.043Z,14.27
2022-10-02T08:23:53.707Z,14.30
2022-10-02T08:26:24.564Z,14.31
2022-10-02T08:29:05.256Z,14.34
2022-10-02T08:31:33.738Z,14.32
2022-10-02T08:34:13.427Z,14.38
2022-10-02T08:36:59.281Z,14.48
2022-10-02T08:39:32.290Z,14.62
2022-10-02T08:42:21.532Z,14.80
2022-10-02T08:45:07.607Z,15.02
2022-10-02T08:48:22.806Z,15.42
2022-10-02T08:51:29.758Z,16.00
2022-10-02T08:54:28.823Z,16.95
2022-10-02T08:57:13.362Z,18.20
2022-10-02T08:59:41.104Z,19.07
2022-10-02T09:02:33.206Z,20.15
2022-10-02T09:59:58.309Z,27.21
2022-10-02T10:02:42.326Z,26.47
2022-10-02T10:05:25.694Z,25.81
2022-10-02T10:08:32.013Z,26.40
2022-10-02T10:11:10.042Z,26.36
2022-10-02T10:13:46.400Z,26.09
2022-10-02T10:16:41.420Z,25.67
2022-10-02T10:19:34.895Z,25.27
2022-10-02T10:22:23.780Z,24.85
2022-10-02T10:25:21.325Z,24.46
2022-10-02T10:28:06.097Z,23.85
2022-10-02T10:30:59.023Z,23.37
2022-10-02T10:33:48.575Z,22.58
2022-10-02T10:36:50.230Z,22.00
2022-10-02T10:39:30.237Z,21.53
2022-10-02T10:42:00.588Z,21.35
2022-10-02T10:44:55.459Z,21.14
2022-10-02T10:47:34.430Z,21.03
2022-10-02T10:50:10.769Z,20.83
2022-10-02T10:52:51.186Z,20.69
2022-10-02T10:55:40.232Z,20.61
2022-10-02T10:58:32.516Z,20.66
2022-10-02T11:01:10.445Z,20.72
2022-10-02T11:04:13.487Z,20.64
2022-10-02T11:06:50.100Z,20.44
2022-10-02T11:09:48.943Z,20.24
2022-10-02T11:12:33.087Z,20.15
2022-10-02T11:15:20.100Z,20.06
2022-10-02T11:18:00.894Z,19.93
2022-10-02T11:20:47.481Z,19.81
2022-10-02T11:23:40.550Z,19.63
2022-10-02T11:26:33.992Z,19.48
2022-10-02T11:29:17.299Z,19.38
2022-10-02T11:32:13.828Z,19.14
2022-10-02T11:35:06.304Z,18.97
2022-10-02T11:37:51.754Z,18.81
2022-10-02T11:40:34.425Z,18.68
2022-10-02T11:43:13.648Z,18.63
2022-10-02T11:46:04.285Z,18.48
2022-10-02T11:49:09.755Z,18.45
2022-10-02T11:51:48.072Z,18.33
2022-10-02T11:54:54.688Z,18.25
2022-10-02T11:57:56.728Z,18.06
2022-10-02T12:00:44.795Z,18.05
2022-10-02T12:03:22.644Z,18.03
2022-10-02T12:06:03.627Z,17.99
2022-10-02T12:08:56.103Z,18.04
2022-10-02T12:11:33.598Z,18.03
2022-10-02T12:14:42.344Z,18.11
2022-10-02T12:17:32.154Z,18.07
2022-10-02T12:20:57.534Z,17.99
2022-10-02T12:24:00.535Z,17.87
2022-10-02T12:26:59.379Z,17.83
2022-10-02T12:29:40.354Z,17.86
2022-10-02T12:32:14.754Z,17.92
2022-10-02T12:35:18.205Z,17.85
2022-10-02T12:38:09.966Z,17.70
2022-10-02T12:40:52.199Z,17.75
2022-10-02T12:43:42.338Z,17.72
2022-10-02T12:46:46.158Z,17.62
2022-10-02T12:49:27.982Z,17.53
2022-10-02T12:52:08.495Z,17.39
2022-10-02T12:55:07.629Z,17.28
2022-10-02T12:57:58.171Z,17.25
2022-10-02T13:01:04.941Z,17.23
2022-10-02T13:04:07.279Z,17.17
2022-10-02T13:06:53.084Z,17.16
2022-10-02T13:09:45.400Z,17.12
2022-10-02T13:12:35.147Z,17.11
2022-10-02T13:15:20.256Z,17.10
2022-10-02T13:17:58.250Z,17.07
2022-10-02T13:20:48.406Z,17.04
2022-10-02T13:23:27.072Z,16.95
2022-10-02T13:26:34.469Z,16.86
2022-10-02T13:29:36.878Z,16.80
2022-10-02T13:32:28.208Z,16.85
2022-10-02T13:34:57.787Z,16.84
2022-10-02T13:37:46.635Z,16.76
2022-10-02T13:40:27.894Z,16.63
2022-10-02T13:43:18.279Z,16.50
2022-10-02T13:46:05.967Z,16.38
2022-10-02T13:48:55.037Z,16.30
2022-10-02T13:52:05.167Z,16.21
2022-10-02T13:54:50.615Z,16.11
2022-10-02T13:57:24.476Z,15.99
2022-10-02T14:00:23.202Z,15.87
2022-10-02T14:03:00.731Z,15.71
2022-10-02T14:05:55.746Z,15.61
2022-10-02T14:08:44.185Z,15.52
2022-10-02T14:11:35.299Z,15.39
2022-10-02T14:14:21.157Z,15.31
2022-10-02T14:16:54.278Z,15.28
2022-10-02T14:19:34.102Z,15.25
2022-10-02T14:22:33.565Z,15.20
2022-10-02T14:25:25.976Z,15.14
2022-10-02T14:27:53.004Z,15.07
2022-10-02T14:30:38.196Z,15.01
2022-10-02T14:33:20.267Z,14.93
2022-10-02T14:35:53.764Z,14.85
2022-10-02T14:38:39.331Z,14.76
2022-10-02T14:41:14.545Z,14.69
2022-10-02T14:44:15.868Z,14.59
2022-10-02T14:47:15.293Z,14.54
2022-10-02T14:49:59.196Z,14.51
2022-10-02T14:52:41.719Z,14.48
2022-10-02T14:55:20.078Z,14.43
2022-10-02T14:58:34.560Z,14.36
2022-10-02T15:01:16.934Z,14.26
2022-10-02T15:04:15.696Z,14.20
2022-10-02T15:07:09.224Z,14.15
2022-10-02T15:09:39.935Z,14.14
2022-10-02T15:12:35.511Z,14.11
2022-10-02T15:15:10.133Z,14.00
2022-10-02T15:18:12.118Z,13.95
2022-10-02T15:20:58.910Z,13.90
2022-10-02T15:24:03.392Z,13.85
2022-10-02T15:26:51.272Z,13.77
2022-10-02T15:29:20.639Z,13.71
2022-10-02T15:32:17.979Z,13.66
2022-10-02T15:35:18.916Z,13.58
2022-10-02T15:38:23.425Z,13.50
2022-10-02T15:41:13.491Z,13.42
2022-10-02T15:44:19.872Z,13.35
2022-10-02T15:47:06.126Z,13.29
2022-10-02T15:49:48.275Z,13.24
2022-10-02T15:52:33.755Z,13.20
2022-10-02T15:55:21.877Z,13.19
2022-10-02T15:57:55.178Z,13.15
2022-10-02T16:00:23.526Z,13.13
2022-10-02T16:03:31.325Z,13.11
2022-10-02T16:06:16.190Z,13.03
2022-10-02T16:08:48.761Z,12.97
2022-10-02T16:12:00.840Z,12.86
2022-10-02T16:14:59.911Z,12.75
2022-10-02T16:17:44.799Z,12.66
2022-10-02T16:20:36.585Z,12.59
2022-10-02T16:23:24.754Z,12.51
2022-10-02T16:25:57.891Z,12.43
2022-10-02T16:28:36.164Z,12.37
2022-10-02T16:31:10.233Z,12.28
2022-10-02T16:33:47.254Z,12.21
2022-10-02T16:36:37.583Z,12.15
2022-10-02T16:39:23.539Z,12.09
2022-10-02T16:42:04.156Z,12.03
2022-10-02T16:44:56.617Z,11.96
2022-10-02T16:47:43.022Z,11.92
2022-10-02T16:50:19.524Z,11.92
2022-10-02T16:53:08.033Z,11.90
2022-10-02T16:55:57.066Z,11.87
2022-10-02T16:58:26.670Z,11.83
2022-10-02T17:01:06.746Z,11.81
2022-10-02T17:03:45.928Z,11.80
2022-10-02T17:06:26.087Z,11.78
2022-10-02T17:09:05.704Z,11.76
2022-10-02T17:11:45.846Z,11.72
2022-10-02T17:14:27.663Z,11.66
2022-10-02T17:17:02.022Z,11.62
2022-10-02T17:20:03.479Z,11.62
2022-10-02T17:22:51.164Z,11.61
2022-10-02T17:25:41.932Z,11.60
2022-10-02T17:28:36.375Z,11.59
2022-10-02T17:31:05.361Z,11.57
2022-10-02T17:33:56.272Z,11.55
2022-10-02T17:36:55.895Z,11.50
2022-10-02T17:39:35.129Z,11.45
2022-10-02T17:42:13.729Z,11.40
2022-10-02T17:44:55.817Z,11.35
2022-10-02T17:47:37.616Z,11.32
2022-10-02T17:50:24.579Z,11.32
2022-10-02T17:53:28.825Z,11.33
2022-10-02T17:56:20.390Z,11.33
2022-10-02T17:59:06.606Z,11.31
2022-10-02T18:01:45.445Z,11.29
2022-10-02T18:04:48.466Z,11.26
2022-10-02T18:07:38.367Z,11.21
2022-10-02T18:10:17.067Z,11.16
2022-10-02T18:12:43.863Z,11.11
2022-10-02T18:15:39.800Z,11.05
2022-10-02T18:18:23.753Z,11.00
2022-10-02T18:21:32.356Z,10.98
2022-10-02T18:24:08.355Z,10.95
2022-10-02T18:26:52.235Z,10.92
2022-10-02T18:29:27.806Z,10.89
2022-10-02T18:32:34.243Z,10.84
2022-10-02T18:35:21.697Z,10.79
2022-10-02T18:38:01.680Z,10.75
2022-10-02T18:40:47.914Z,10.70
2022-10-02T18:43:47.516Z,10.70
2022-10-02T18:46:29.365Z,10.73
2022-10-02T18:49:08.276Z,10.75
2022-10-02T18:51:58.220Z,10.77
2022-10-02T18:54:39.594Z,10.82
2022-10-02T18:57:41.002Z,10.85
2022-10-02T19:00:20.896Z,10.90
2022-10-02T19:03:02.962Z,10.96
2022-10-02T19:05:34.978Z,11.01
2022-10-02T19:08:04.817Z,11.07
2022-10-02T19:10:31.753Z,11.10
2022-10-02T19:13:21.843Z,11.12
2022-10-02T19:15:51.827Z,11.17
2022-10-02T19:18:23.151Z,11.23
2022-10-02T19:21:16.943Z,11.28
2022-10-02T19:24:02.715Z,11.32
2022-10-02T19:26:33.973Z,11.37
2022-10-02T19:29:19.257Z,11.40
2022-10-02T19:31:46.298Z,11.39
2022-10-02T19:34:24.067Z,11.37
2022-10-02T19:36:56.557Z,11.34
2022-10-02T19:39:52.415Z,11.30
2022-10-02T19:42:24.575Z,11.24
2022-10-02T19:45:25.415Z,11.19
2022-10-02T19:47:59.764Z,11.18
2022-10-02T19:50:39.862Z,11.18
2022-10-02T19:53:22.979Z,11.16
2022-10-02T19:55:56.355Z,11.15
2022-10-02T19:58:28.834Z,11.13
2022-10-02T20:00:56.210Z,11.12
2022-10-02T20:03:25.075Z,11.12
2022-10-02T20:05:57.722Z,11.08
2022-10-02T20:08:44.637Z,11.05
2022-10-02T20:11:26.374Z,11.02
2022-10-02T20:14:18.194Z,10.98
2022-10-02T20:17:03.476Z,10.94
2022-10-02T20:19:35.690Z,10.91
2022-10-02T20:22:28.733Z,10.89
2022-10-02T20:24:58.051Z,10.84
2022-10-02T20:27:58.927Z,10.79
2022-10-02T20:30:34.851Z,10.74
2022-10-02T20:33:09.077Z,10.72
2022-10-02T20:35:39.695Z,10.71
2022-10-02T20:38:16.877Z,10.68
2022-10-02T20:40:52.689Z,10.66
2022-10-02T20:43:31.615Z,10.63
2022-10-02T20:46:01.578Z,10.61
2022-10-02T20:49:07.377Z,10.55
2022-10-02T20:52:06.201Z,10.53
2022-10-02T20:54:44.860Z,10.51
2022-10-02T20:58:00.118Z,10.48
2022-10-02T21:00:54.295Z,10.45
2022-10-02T21:03:59.242Z,10.43
2022-10-02T21:06:45.816Z,10.40
2022-10-02T21:09:50.044Z,10.36
2022-10-02T21:12:35.443Z,10.33
2022-10-02T21:15:35.274Z,10.38
2022-10-02T21:18:10.596Z,10.43
2022-10-02T21:20:51.924Z,10.48
2022-10-02T21:23:38.548Z,10.53
2022-10-02T21:26:26.495Z,10.60
2022-10-02T21:29:12.127Z,10.63
2022-10-02T21:32:15.368Z,10.64
2022-10-02T21:35:08.723Z,10.67
2022-10-02T21:37:54.038Z,10.71
2022-10-02T21:40:41.621Z,10.74
2022-10-02T21:43:32.762Z,10.75
2022-10-02T21:46:15.071Z,10.77
2022-10-02T21:48:51.039Z,10.79
2022-10-02T21:52:08.783Z,10.80
2022-10-02T21:55:00.324Z,10.81
2022-10-02T21:57:39.576Z,10.85
2022-10-02T22:00:15.531Z,10.87
2022-10-02T22:02:45.238Z,10.88
2022-10-02T22:05:50.112Z,10.88
2022-10-02T22:08:36.183Z,10.88
2022-10-02T22:11:30.611Z,10.86
2022-10-02T22:14:05.912Z,10.84
2022-10-02T22:16:36.712Z,10.81
2022-10-02T22:19:29.889Z,10.81
2022-10-02T22:22:54.354Z,10.84
2022-10-02T22:25:39.573Z,10.82
2022-10-02T22:28:20.748Z,10.81
2022-10-02T22:30:47.611Z,10.78
2022-10-02T22:33:26.146Z,10.74
2022-10-02T22:36:04.982Z,10.69
2022-10-02T22:38:35.111Z,10.64
2022-10-02T22:41:23.713Z,10.61
2022-10-02T22:43:58.959Z,10.62
2022-10-02T22:46:29.183Z,10.60
2022-10-02T22:49:17.812Z,10.59
2022-10-02T22:51:59.233Z,10.56
2022-10-02T22:54:33.254Z,10.54
2022-10-02T22:57:06.599Z,10.52
2022-10-02T22:59:53.441Z,10.53
2022-10-02T23:02:54.211Z,10.56
2022-10-02T23:05:38.530Z,10.60
2022-10-02T23:08:20.884Z,10.65
2022-10-02T23:10:54.798Z,10.69
2022-10-02T23:13:32.926Z,10.70
2022-10-02T23:16:07.638Z,10.69
2022-10-02T23:18:50.397Z,10.73
2022-10-02T23:21:22.913Z,10.78
2022-10-02T23:24:07.976Z,10.82
2022-10-02T23:26:53.043Z,10.88
2022-10-02T23:29:44.362Z,10.94
2022-10-02T23:32:16.817Z,10.96
2022-10-02T23:35:02.354Z,10.98
2022-10-02T23:37:32.223Z,10.98
2022-10-02T23:40:05.018Z,11.00
2022-10-02T23:42:38.789Z,11.05
2022-10-02T23:45:39.512Z,11.08
2022-10-02T23:48:14.157Z,11.11
2022-10-02T23:50:49.214Z,11.14
2022-10-02T23:53:58.698Z,11.17
2022-10-02T23:56:40.583Z,11.19
2022-10-02T23:59:30.338Z,11.19
